sensor_id;sensor_type;location;lat;lon;timestamp;P1;durP1;ratioP1;P2;durP2;ratioP2
50954;SDS011;36966;48.064;-0.792;2023-04-06T00:01:48;13.88;;;8.00;;
50954;SDS011;36966;48.064;-0.792;2023-04-06T00:04:08;11.50;;;8.10;;
50954;SDS011;36966;48.064;-0.792;2023-04-06T00:06:28;12.98;;;8.55;;
50954;SDS011;36966;48.064;-0.792;2023-04-06T00:08:46;12.18;;;8.52;;
50954;SDS011;36966;48.064;-0.792;2023-04-06T00:11:06;11.80;;;7.93;;
50954;SDS011;36966;48.064;-0.792;2023-04-06T00:13:25;17.83;;;8.65;;
50954;SDS011;36966;48.064;-0.792;2023-04-06T00:15:44;13.73;;;8.45;;
50954;SDS011;36966;48.064;-0.792;2023-04-06T00:18:03;15.18;;;8.68;;
50954;SDS011;36966;48.064;-0.792;2023-04-06T00:20:23;15.30;;;9.15;;
50954;SDS011;36966;48.064;-0.792;2023-04-06T00:22:43;15.38;;;9.43;;
50954;SDS011;36966;48.064;-0.792;2023-04-06T00:25:03;16.15;;;8.65;;
50954;SDS011;36966;48.064;-0.792;2023-04-06T00:27:23;13.23;;;9.20;;
50954;SDS011;36966;48.064;-0.792;2023-04-06T00:29:43;14.80;;;9.30;;
50954;SDS011;36966;48.064;-0.792;2023-04-06T00:32:03;16.35;;;8.75;;
50954;SDS011;36966;48.064;-0.792;2023-04-06T00:34:23;14.35;;;8.75;;
50954;SDS011;36966;48.064;-0.792;2023-04-06T00:36:42;14.02;;;8.80;;
50954;SDS011;36966;48.064;-0.792;2023-04-06T00:39:01;12.48;;;9.07;;
50954;SDS011;36966;48.064;-0.792;2023-04-06T00:41:21;14.52;;;8.80;;
50954;SDS011;36966;48.064;-0.792;2023-04-06T00:43:40;15.13;;;9.60;;
50954;SDS011;36966;48.064;-0.792;2023-04-06T00:45:59;15.98;;;8.68;;
50954;SDS011;36966;48.064;-0.792;2023-04-06T00:48:18;15.40;;;9.50;;
50954;SDS011;36966;48.064;-0.792;2023-04-06T00:50:37;13.95;;;8.88;;
50954;SDS011;36966;48.064;-0.792;2023-04-06T00:52:56;15.50;;;9.50;;
50954;SDS011;36966;48.064;-0.792;2023-04-06T00:55:17;14.90;;;8.48;;
50954;SDS011;36966;48.064;-0.792;2023-04-06T00:57:36;15.77;;;8.88;;
50954;SDS011;36966;48.064;-0.792;2023-04-06T00:59:56;16.77;;;9.38;;
50954;SDS011;36966;48.064;-0.792;2023-04-06T01:02:16;14.07;;;9.45;;
50954;SDS011;36966;48.064;-0.792;2023-04-06T01:04:35;15.02;;;9.20;;
50954;SDS011;36966;48.064;-0.792;2023-04-06T01:06:54;17.80;;;10.07;;
50954;SDS011;36966;48.064;-0.792;2023-04-06T01:09:14;15.15;;;9.38;;
50954;SDS011;36966;48.064;-0.792;2023-04-06T01:11:33;14.60;;;9.20;;
50954;SDS011;36966;48.064;-0.792;2023-04-06T01:13:54;17.10;;;10.55;;
50954;SDS011;36966;48.064;-0.792;2023-04-06T01:16:13;15.80;;;10.23;;
50954;SDS011;36966;48.064;-0.792;2023-04-06T01:18:33;20.77;;;10.00;;
50954;SDS011;36966;48.064;-0.792;2023-04-06T01:20:52;15.18;;;9.77;;
50954;SDS011;36966;48.064;-0.792;2023-04-06T01:23:12;15.68;;;10.38;;
50954;SDS011;36966;48.064;-0.792;2023-04-06T01:25:31;14.73;;;9.77;;
50954;SDS011;36966;48.064;-0.792;2023-04-06T01:27:50;15.40;;;9.25;;
50954;SDS011;36966;48.064;-0.792;2023-04-06T01:30:09;17.42;;;10.20;;
50954;SDS011;36966;48.064;-0.792;2023-04-06T01:32:29;15.15;;;10.05;;
50954;SDS011;36966;48.064;-0.792;2023-04-06T01:34:49;15.10;;;9.02;;
50954;SDS011;36966;48.064;-0.792;2023-04-06T01:37:08;15.10;;;8.75;;
50954;SDS011;36966;48.064;-0.792;2023-04-06T01:39:28;15.82;;;8.75;;
50954;SDS011;36966;48.064;-0.792;2023-04-06T01:41:47;15.23;;;9.40;;
50954;SDS011;36966;48.064;-0.792;2023-04-06T01:44:06;14.20;;;9.73;;
50954;SDS011;36966;48.064;-0.792;2023-04-06T01:46:26;17.90;;;9.30;;
50954;SDS011;36966;48.064;-0.792;2023-04-06T01:48:44;16.63;;;9.52;;
50954;SDS011;36966;48.064;-0.792;2023-04-06T01:51:04;13.23;;;8.65;;
50954;SDS011;36966;48.064;-0.792;2023-04-06T01:53:23;16.70;;;10.00;;
50954;SDS011;36966;48.064;-0.792;2023-04-06T01:55:42;14.25;;;9.65;;
50954;SDS011;36966;48.064;-0.792;2023-04-06T01:58:01;15.35;;;9.68;;
50954;SDS011;36966;48.064;-0.792;2023-04-06T02:00:20;16.67;;;11.10;;
50954;SDS011;36966;48.064;-0.792;2023-04-06T02:02:40;17.52;;;10.48;;
50954;SDS011;36966;48.064;-0.792;2023-04-06T02:04:59;16.40;;;10.23;;
50954;SDS011;36966;48.064;-0.792;2023-04-06T02:07:19;18.35;;;10.55;;
50954;SDS011;36966;48.064;-0.792;2023-04-06T02:09:38;18.63;;;9.50;;
50954;SDS011;36966;48.064;-0.792;2023-04-06T02:11:57;19.20;;;10.85;;
50954;SDS011;36966;48.064;-0.792;2023-04-06T02:14:16;15.77;;;9.35;;
50954;SDS011;36966;48.064;-0.792;2023-04-06T02:16:35;18.38;;;9.40;;
50954;SDS011;36966;48.064;-0.792;2023-04-06T02:18:54;12.88;;;8.63;;
50954;SDS011;36966;48.064;-0.792;2023-04-06T02:21:13;16.60;;;10.07;;
50954;SDS011;36966;48.064;-0.792;2023-04-06T02:23:36;13.90;;;8.20;;
50954;SDS011;36966;48.064;-0.792;2023-04-06T02:25:55;14.30;;;8.43;;
50954;SDS011;36966;48.064;-0.792;2023-04-06T02:28:14;18.00;;;9.48;;
50954;SDS011;36966;48.064;-0.792;2023-04-06T02:30:34;14.27;;;9.25;;
50954;SDS011;36966;48.064;-0.792;2023-04-06T02:32:54;16.38;;;9.52;;
50954;SDS011;36966;48.064;-0.792;2023-04-06T02:35:14;16.77;;;9.25;;
50954;SDS011;36966;48.064;-0.792;2023-04-06T02:37:33;14.20;;;8.07;;
50954;SDS011;36966;48.064;-0.792;2023-04-06T02:39:53;18.05;;;9.82;;
50954;SDS011;36966;48.064;-0.792;2023-04-06T02:42:13;27.85;;;11.75;;
50954;SDS011;36966;48.064;-0.792;2023-04-06T02:44:34;21.38;;;11.40;;
50954;SDS011;36966;48.064;-0.792;2023-04-06T02:46:53;22.40;;;11.18;;
50954;SDS011;36966;48.064;-0.792;2023-04-06T02:49:12;17.45;;;9.93;;
50954;SDS011;36966;48.064;-0.792;2023-04-06T02:51:31;19.33;;;9.70;;
50954;SDS011;36966;48.064;-0.792;2023-04-06T02:53:51;17.00;;;9.55;;
50954;SDS011;36966;48.064;-0.792;2023-04-06T02:56:11;15.27;;;8.57;;
50954;SDS011;36966;48.064;-0.792;2023-04-06T02:58:30;17.88;;;9.80;;
50954;SDS011;36966;48.064;-0.792;2023-04-06T03:00:50;15.45;;;9.25;;
50954;SDS011;36966;48.064;-0.792;2023-04-06T03:03:09;14.32;;;9.20;;
50954;SDS011;36966;48.064;-0.792;2023-04-06T03:05:29;15.40;;;8.02;;
50954;SDS011;36966;48.064;-0.792;2023-04-06T03:07:49;18.30;;;9.43;;
50954;SDS011;36966;48.064;-0.792;2023-04-06T03:10:08;12.55;;;8.63;;
50954;SDS011;36966;48.064;-0.792;2023-04-06T03:12:28;14.05;;;9.32;;
50954;SDS011;36966;48.064;-0.792;2023-04-06T03:14:47;12.77;;;8.38;;
50954;SDS011;36966;48.064;-0.792;2023-04-06T03:17:07;14.48;;;9.35;;
50954;SDS011;36966;48.064;-0.792;2023-04-06T03:19:26;14.57;;;8.90;;
50954;SDS011;36966;48.064;-0.792;2023-04-06T03:21:45;12.80;;;8.25;;
50954;SDS011;36966;48.064;-0.792;2023-04-06T03:24:05;15.40;;;8.85;;
50954;SDS011;36966;48.064;-0.792;2023-04-06T03:26:25;13.20;;;8.52;;
50954;SDS011;36966;48.064;-0.792;2023-04-06T03:28:44;12.48;;;9.20;;
50954;SDS011;36966;48.064;-0.792;2023-04-06T03:31:03;12.82;;;7.88;;
50954;SDS011;36966;48.064;-0.792;2023-04-06T03:33:23;15.18;;;8.65;;
50954;SDS011;36966;48.064;-0.792;2023-04-06T03:35:45;17.17;;;9.13;;
50954;SDS011;36966;48.064;-0.792;2023-04-06T03:38:04;11.80;;;8.27;;
50954;SDS011;36966;48.064;-0.792;2023-04-06T03:40:24;14.10;;;7.60;;
50954;SDS011;36966;48.064;-0.792;2023-04-06T03:42:44;12.63;;;8.00;;
50954;SDS011;36966;48.064;-0.792;2023-04-06T03:45:03;12.30;;;7.97;;
50954;SDS011;36966;48.064;-0.792;2023-04-06T03:47:23;13.48;;;8.30;;
50954;SDS011;36966;48.064;-0.792;2023-04-06T03:49:42;16.25;;;9.88;;
50954;SDS011;36966;48.064;-0.792;2023-04-06T03:52:01;14.60;;;9.32;;
50954;SDS011;36966;48.064;-0.792;2023-04-06T03:54:20;13.75;;;9.50;;
50954;SDS011;36966;48.064;-0.792;2023-04-06T03:56:40;14.73;;;9.63;;
50954;SDS011;36966;48.064;-0.792;2023-04-06T03:58:59;20.58;;;9.80;;
50954;SDS011;36966;48.064;-0.792;2023-04-06T04:01:18;18.77;;;10.77;;
50954;SDS011;36966;48.064;-0.792;2023-04-06T04:03:37;17.88;;;10.18;;
50954;SDS011;36966;48.064;-0.792;2023-04-06T04:05:56;17.10;;;9.60;;
50954;SDS011;36966;48.064;-0.792;2023-04-06T04:08:16;18.25;;;10.63;;
50954;SDS011;36966;48.064;-0.792;2023-04-06T04:10:35;16.83;;;10.13;;
50954;SDS011;36966;48.064;-0.792;2023-04-06T04:12:54;17.90;;;9.32;;
50954;SDS011;36966;48.064;-0.792;2023-04-06T04:15:14;16.67;;;9.73;;
50954;SDS011;36966;48.064;-0.792;2023-04-06T04:17:33;16.13;;;10.15;;
50954;SDS011;36966;48.064;-0.792;2023-04-06T04:19:52;13.77;;;9.45;;
50954;SDS011;36966;48.064;-0.792;2023-04-06T04:22:12;18.70;;;10.23;;
50954;SDS011;36966;48.064;-0.792;2023-04-06T04:24:32;14.80;;;9.00;;
50954;SDS011;36966;48.064;-0.792;2023-04-06T04:26:52;18.27;;;9.27;;
50954;SDS011;36966;48.064;-0.792;2023-04-06T04:29:10;17.58;;;9.80;;
50954;SDS011;36966;48.064;-0.792;2023-04-06T04:31:30;15.23;;;9.55;;
50954;SDS011;36966;48.064;-0.792;2023-04-06T04:33:49;16.52;;;9.68;;
50954;SDS011;36966;48.064;-0.792;2023-04-06T04:36:09;16.23;;;9.23;;
50954;SDS011;36966;48.064;-0.792;2023-04-06T04:38:28;16.83;;;8.93;;
50954;SDS011;36966;48.064;-0.792;2023-04-06T04:40:48;12.07;;;8.75;;
50954;SDS011;36966;48.064;-0.792;2023-04-06T04:43:07;13.80;;;8.70;;
50954;SDS011;36966;48.064;-0.792;2023-04-06T04:45:26;13.68;;;8.55;;
50954;SDS011;36966;48.064;-0.792;2023-04-06T04:47:46;14.50;;;8.63;;
50954;SDS011;36966;48.064;-0.792;2023-04-06T04:50:05;13.95;;;8.25;;
50954;SDS011;36966;48.064;-0.792;2023-04-06T04:52:25;14.15;;;8.63;;
50954;SDS011;36966;48.064;-0.792;2023-04-06T04:54:44;13.35;;;8.45;;
50954;SDS011;36966;48.064;-0.792;2023-04-06T04:57:05;15.15;;;7.75;;
50954;SDS011;36966;48.064;-0.792;2023-04-06T04:59:24;11.15;;;7.70;;
50954;SDS011;36966;48.064;-0.792;2023-04-06T05:01:43;12.40;;;7.80;;
50954;SDS011;36966;48.064;-0.792;2023-04-06T05:04:03;10.57;;;7.32;;
50954;SDS011;36966;48.064;-0.792;2023-04-06T05:06:22;14.82;;;8.13;;
50954;SDS011;36966;48.064;-0.792;2023-04-06T05:08:41;11.57;;;7.15;;
50954;SDS011;36966;48.064;-0.792;2023-04-06T05:11:01;14.57;;;8.43;;
50954;SDS011;36966;48.064;-0.792;2023-04-06T05:13:20;11.68;;;7.90;;
50954;SDS011;36966;48.064;-0.792;2023-04-06T05:15:40;11.68;;;7.32;;
50954;SDS011;36966;48.064;-0.792;2023-04-06T05:17:59;12.57;;;7.85;;
50954;SDS011;36966;48.064;-0.792;2023-04-06T05:20:19;14.88;;;7.93;;
50954;SDS011;36966;48.064;-0.792;2023-04-06T05:22:38;13.00;;;7.60;;
50954;SDS011;36966;48.064;-0.792;2023-04-06T05:24:58;14.15;;;8.10;;
50954;SDS011;36966;48.064;-0.792;2023-04-06T05:27:17;14.10;;;7.22;;
50954;SDS011;36966;48.064;-0.792;2023-04-06T05:29:36;11.98;;;7.10;;
50954;SDS011;36966;48.064;-0.792;2023-04-06T05:31:55;12.43;;;7.72;;
50954;SDS011;36966;48.064;-0.792;2023-04-06T05:34:14;13.32;;;7.85;;
50954;SDS011;36966;48.064;-0.792;2023-04-06T05:36:34;14.98;;;7.78;;
50954;SDS011;36966;48.064;-0.792;2023-04-06T05:38:54;18.60;;;8.50;;
50954;SDS011;36966;48.064;-0.792;2023-04-06T05:41:14;15.75;;;7.65;;
50954;SDS011;36966;48.064;-0.792;2023-04-06T05:43:34;14.10;;;7.70;;
50954;SDS011;36966;48.064;-0.792;2023-04-06T05:45:53;12.38;;;8.00;;
50954;SDS011;36966;48.064;-0.792;2023-04-06T05:48:13;12.82;;;7.38;;
50954;SDS011;36966;48.064;-0.792;2023-04-06T05:50:32;18.70;;;7.43;;
50954;SDS011;36966;48.064;-0.792;2023-04-06T05:52:51;10.10;;;6.20;;
50954;SDS011;36966;48.064;-0.792;2023-04-06T05:55:10;11.38;;;7.13;;
50954;SDS011;36966;48.064;-0.792;2023-04-06T05:57:30;10.68;;;6.93;;
50954;SDS011;36966;48.064;-0.792;2023-04-06T05:59:49;9.45;;;6.35;;
50954;SDS011;36966;48.064;-0.792;2023-04-06T06:02:08;11.23;;;6.63;;
50954;SDS011;36966;48.064;-0.792;2023-04-06T06:04:28;10.23;;;6.47;;
50954;SDS011;36966;48.064;-0.792;2023-04-06T06:06:47;11.40;;;7.32;;
50954;SDS011;36966;48.064;-0.792;2023-04-06T06:09:06;11.20;;;7.22;;
50954;SDS011;36966;48.064;-0.792;2023-04-06T06:11:26;13.63;;;7.25;;
50954;SDS011;36966;48.064;-0.792;2023-04-06T06:13:45;14.90;;;7.30;;
50954;SDS011;36966;48.064;-0.792;2023-04-06T06:16:05;14.90;;;6.45;;
50954;SDS011;36966;48.064;-0.792;2023-04-06T06:18:25;13.63;;;6.72;;
50954;SDS011;36966;48.064;-0.792;2023-04-06T06:20:44;15.43;;;6.72;;
50954;SDS011;36966;48.064;-0.792;2023-04-06T06:23:03;11.77;;;6.00;;
50954;SDS011;36966;48.064;-0.792;2023-04-06T06:25:23;12.02;;;6.85;;
50954;SDS011;36966;48.064;-0.792;2023-04-06T06:27:42;14.23;;;6.53;;
50954;SDS011;36966;48.064;-0.792;2023-04-06T06:30:02;13.98;;;6.60;;
50954;SDS011;36966;48.064;-0.792;2023-04-06T06:32:21;13.48;;;6.95;;
50954;SDS011;36966;48.064;-0.792;2023-04-06T06:34:40;12.35;;;6.15;;
50954;SDS011;36966;48.064;-0.792;2023-04-06T06:37:00;10.27;;;6.60;;
50954;SDS011;36966;48.064;-0.792;2023-04-06T06:39:19;11.15;;;6.70;;
50954;SDS011;36966;48.064;-0.792;2023-04-06T06:41:38;10.80;;;6.85;;
50954;SDS011;36966;48.064;-0.792;2023-04-06T06:43:59;13.05;;;6.10;;
50954;SDS011;36966;48.064;-0.792;2023-04-06T06:46:19;11.23;;;7.03;;
50954;SDS011;36966;48.064;-0.792;2023-04-06T06:48:39;9.35;;;6.45;;
50954;SDS011;36966;48.064;-0.792;2023-04-06T06:50:59;12.93;;;6.80;;
50954;SDS011;36966;48.064;-0.792;2023-04-06T06:53:18;15.35;;;6.35;;
50954;SDS011;36966;48.064;-0.792;2023-04-06T06:55:39;10.10;;;7.00;;
50954;SDS011;36966;48.064;-0.792;2023-04-06T06:57:58;9.13;;;6.72;;
50954;SDS011;36966;48.064;-0.792;2023-04-06T07:00:17;11.75;;;6.35;;
50954;SDS011;36966;48.064;-0.792;2023-04-06T07:02:39;10.50;;;6.82;;
50954;SDS011;36966;48.064;-0.792;2023-04-06T07:04:58;9.85;;;5.97;;
50954;SDS011;36966;48.064;-0.792;2023-04-06T07:07:18;10.82;;;6.78;;
50954;SDS011;36966;48.064;-0.792;2023-04-06T07:09:37;12.25;;;7.20;;
50954;SDS011;36966;48.064;-0.792;2023-04-06T07:11:56;10.32;;;6.50;;
50954;SDS011;36966;48.064;-0.792;2023-04-06T07:14:15;14.32;;;5.53;;
50954;SDS011;36966;48.064;-0.792;2023-04-06T07:16:35;11.38;;;6.07;;
50954;SDS011;36966;48.064;-0.792;2023-04-06T07:18:54;16.98;;;6.95;;
50954;SDS011;36966;48.064;-0.792;2023-04-06T07:21:14;11.27;;;6.68;;
50954;SDS011;36966;48.064;-0.792;2023-04-06T07:23:33;10.85;;;6.38;;
50954;SDS011;36966;48.064;-0.792;2023-04-06T07:25:52;8.23;;;5.47;;
50954;SDS011;36966;48.064;-0.792;2023-04-06T07:28:13;10.73;;;6.35;;
50954;SDS011;36966;48.064;-0.792;2023-04-06T07:30:32;10.50;;;6.22;;
50954;SDS011;36966;48.064;-0.792;2023-04-06T07:32:52;9.20;;;5.72;;
50954;SDS011;36966;48.064;-0.792;2023-04-06T07:35:12;10.23;;;5.97;;
50954;SDS011;36966;48.064;-0.792;2023-04-06T07:37:34;6.80;;;4.88;;
50954;SDS011;36966;48.064;-0.792;2023-04-06T07:39:53;12.75;;;6.28;;
50954;SDS011;36966;48.064;-0.792;2023-04-06T07:42:13;7.32;;;4.57;;
50954;SDS011;36966;48.064;-0.792;2023-04-06T07:44:32;10.63;;;5.15;;
50954;SDS011;36966;48.064;-0.792;2023-04-06T07:46:51;8.70;;;5.35;;
50954;SDS011;36966;48.064;-0.792;2023-04-06T07:49:10;10.38;;;6.07;;
50954;SDS011;36966;48.064;-0.792;2023-04-06T07:51:29;6.90;;;5.28;;
50954;SDS011;36966;48.064;-0.792;2023-04-06T07:53:52;14.00;;;5.45;;
50954;SDS011;36966;48.064;-0.792;2023-04-06T07:56:11;12.32;;;4.85;;
50954;SDS011;36966;48.064;-0.792;2023-04-06T07:58:31;8.90;;;4.47;;
50954;SDS011;36966;48.064;-0.792;2023-04-06T08:00:50;8.07;;;5.30;;
50954;SDS011;36966;48.064;-0.792;2023-04-06T08:03:10;7.60;;;4.72;;
50954;SDS011;36966;48.064;-0.792;2023-04-06T08:05:29;15.02;;;5.65;;
50954;SDS011;36966;48.064;-0.792;2023-04-06T08:07:48;9.52;;;5.15;;
50954;SDS011;36966;48.064;-0.792;2023-04-06T08:10:08;9.82;;;4.63;;
50954;SDS011;36966;48.064;-0.792;2023-04-06T08:12:27;7.03;;;3.97;;
50954;SDS011;36966;48.064;-0.792;2023-04-06T08:14:47;8.98;;;4.18;;
50954;SDS011;36966;48.064;-0.792;2023-04-06T08:17:06;7.35;;;4.45;;
50954;SDS011;36966;48.064;-0.792;2023-04-06T08:19:26;6.82;;;4.15;;
50954;SDS011;36966;48.064;-0.792;2023-04-06T08:21:45;6.88;;;4.05;;
50954;SDS011;36966;48.064;-0.792;2023-04-06T08:24:05;7.35;;;4.05;;
50954;SDS011;36966;48.064;-0.792;2023-04-06T08:26:25;7.38;;;4.93;;
50954;SDS011;36966;48.064;-0.792;2023-04-06T08:28:44;7.15;;;3.70;;
50954;SDS011;36966;48.064;-0.792;2023-04-06T08:31:04;7.90;;;4.30;;
50954;SDS011;36966;48.064;-0.792;2023-04-06T08:33:24;7.53;;;3.53;;
50954;SDS011;36966;48.064;-0.792;2023-04-06T08:35:44;6.75;;;3.60;;
50954;SDS011;36966;48.064;-0.792;2023-04-06T08:38:03;6.85;;;4.13;;
50954;SDS011;36966;48.064;-0.792;2023-04-06T08:40:22;10.43;;;3.60;;
50954;SDS011;36966;48.064;-0.792;2023-04-06T08:42:49;5.38;;;3.22;;
50954;SDS011;36966;48.064;-0.792;2023-04-06T08:45:10;5.35;;;3.30;;
50954;SDS011;36966;48.064;-0.792;2023-04-06T08:47:31;15.32;;;3.90;;
50954;SDS011;36966;48.064;-0.792;2023-04-06T08:49:50;4.80;;;3.08;;
50954;SDS011;36966;48.064;-0.792;2023-04-06T08:52:11;8.20;;;3.33;;
50954;SDS011;36966;48.064;-0.792;2023-04-06T08:54:30;7.13;;;3.75;;
50954;SDS011;36966;48.064;-0.792;2023-04-06T08:56:49;6.45;;;3.92;;
50954;SDS011;36966;48.064;-0.792;2023-04-06T08:59:09;9.23;;;3.40;;
50954;SDS011;36966;48.064;-0.792;2023-04-06T09:01:29;6.88;;;3.50;;
50954;SDS011;36966;48.064;-0.792;2023-04-06T09:03:50;4.97;;;3.83;;
50954;SDS011;36966;48.064;-0.792;2023-04-06T09:06:11;8.45;;;3.95;;
50954;SDS011;36966;48.064;-0.792;2023-04-06T09:08:35;7.72;;;3.88;;
50954;SDS011;36966;48.064;-0.792;2023-04-06T09:10:57;9.15;;;3.20;;
50954;SDS011;36966;48.064;-0.792;2023-04-06T09:13:16;8.15;;;3.40;;
50954;SDS011;36966;48.064;-0.792;2023-04-06T09:15:35;4.90;;;3.08;;
50954;SDS011;36966;48.064;-0.792;2023-04-06T09:17:56;4.93;;;2.83;;
50954;SDS011;36966;48.064;-0.792;2023-04-06T09:20:21;9.75;;;3.78;;
50954;SDS011;36966;48.064;-0.792;2023-04-06T09:22:44;3.83;;;2.75;;
50954;SDS011;36966;48.064;-0.792;2023-04-06T09:25:03;5.22;;;2.42;;
50954;SDS011;36966;48.064;-0.792;2023-04-06T09:27:31;4.15;;;2.53;;
50954;SDS011;36966;48.064;-0.792;2023-04-06T09:29:51;5.28;;;2.70;;
50954;SDS011;36966;48.064;-0.792;2023-04-06T09:32:25;3.65;;;2.38;;
50954;SDS011;36966;48.064;-0.792;2023-04-06T09:34:44;5.43;;;2.63;;
50954;SDS011;36966;48.064;-0.792;2023-04-06T09:37:16;5.25;;;2.40;;
50954;SDS011;36966;48.064;-0.792;2023-04-06T09:39:37;6.20;;;2.58;;
50954;SDS011;36966;48.064;-0.792;2023-04-06T09:41:56;7.07;;;3.30;;
50954;SDS011;36966;48.064;-0.792;2023-04-06T09:44:15;8.15;;;3.00;;
50954;SDS011;36966;48.064;-0.792;2023-04-06T09:46:35;7.13;;;2.00;;
50954;SDS011;36966;48.064;-0.792;2023-04-06T09:48:55;3.55;;;2.38;;
50954;SDS011;36966;48.064;-0.792;2023-04-06T09:51:16;3.80;;;2.85;;
50954;SDS011;36966;48.064;-0.792;2023-04-06T09:53:37;27.60;;;3.92;;
50954;SDS011;36966;48.064;-0.792;2023-04-06T09:56:01;16.13;;;3.75;;
50954;SDS011;36966;48.064;-0.792;2023-04-06T09:58:22;12.90;;;3.40;;
50954;SDS011;36966;48.064;-0.792;2023-04-06T10:04:01;9.75;;;3.00;;
50954;SDS011;36966;48.064;-0.792;2023-04-06T10:06:03;3.15;;;2.42;;
50954;SDS011;36966;48.064;-0.792;2023-04-06T10:08:24;8.05;;;2.35;;
50954;SDS011;36966;48.064;-0.792;2023-04-06T10:10:46;13.02;;;3.08;;
50954;SDS011;36966;48.064;-0.792;2023-04-06T10:13:06;6.65;;;2.40;;
50954;SDS011;36966;48.064;-0.792;2023-04-06T10:15:29;5.18;;;2.90;;
50954;SDS011;36966;48.064;-0.792;2023-04-06T10:17:48;7.97;;;2.60;;
50954;SDS011;36966;48.064;-0.792;2023-04-06T10:22:32;4.85;;;2.47;;
50954;SDS011;36966;48.064;-0.792;2023-04-06T10:25:13;5.30;;;2.55;;
50954;SDS011;36966;48.064;-0.792;2023-04-06T10:27:32;7.35;;;3.28;;
50954;SDS011;36966;48.064;-0.792;2023-04-06T10:29:51;4.03;;;2.63;;
50954;SDS011;36966;48.064;-0.792;2023-04-06T10:32:10;5.13;;;3.55;;
50954;SDS011;36966;48.064;-0.792;2023-04-06T10:34:39;4.20;;;2.90;;
50954;SDS011;36966;48.064;-0.792;2023-04-06T10:36:58;7.57;;;2.95;;
50954;SDS011;36966;48.064;-0.792;2023-04-06T10:39:23;5.60;;;3.20;;
50954;SDS011;36966;48.064;-0.792;2023-04-06T10:41:45;6.43;;;3.22;;
50954;SDS011;36966;48.064;-0.792;2023-04-06T10:44:06;11.02;;;4.13;;
50954;SDS011;36966;48.064;-0.792;2023-04-06T10:46:26;8.05;;;3.90;;
50954;SDS011;36966;48.064;-0.792;2023-04-06T10:48:47;6.05;;;3.60;;
50954;SDS011;36966;48.064;-0.792;2023-04-06T10:51:27;12.60;;;3.88;;
50954;SDS011;36966;48.064;-0.792;2023-04-06T10:53:47;5.18;;;2.72;;
50954;SDS011;36966;48.064;-0.792;2023-04-06T10:56:09;6.00;;;3.85;;
50954;SDS011;36966;48.064;-0.792;2023-04-06T10:58:30;6.25;;;3.92;;
50954;SDS011;36966;48.064;-0.792;2023-04-06T11:00:49;6.65;;;3.47;;
50954;SDS011;36966;48.064;-0.792;2023-04-06T11:03:09;7.47;;;3.22;;
50954;SDS011;36966;48.064;-0.792;2023-04-06T11:05:28;5.03;;;2.80;;
50954;SDS011;36966;48.064;-0.792;2023-04-06T11:07:49;9.73;;;3.20;;
50954;SDS011;36966;48.064;-0.792;2023-04-06T11:10:08;9.20;;;2.70;;
50954;SDS011;36966;48.064;-0.792;2023-04-06T11:12:27;7.53;;;2.78;;
50954;SDS011;36966;48.064;-0.792;2023-04-06T11:14:58;6.78;;;1.83;;
50954;SDS011;36966;48.064;-0.792;2023-04-06T11:17:26;5.03;;;2.28;;
50954;SDS011;36966;48.064;-0.792;2023-04-06T11:19:46;4.25;;;2.38;;
50954;SDS011;36966;48.064;-0.792;2023-04-06T11:22:08;4.50;;;1.63;;
50954;SDS011;36966;48.064;-0.792;2023-04-06T11:24:27;4.32;;;1.65;;
50954;SDS011;36966;48.064;-0.792;2023-04-06T11:26:47;4.18;;;2.00;;
50954;SDS011;36966;48.064;-0.792;2023-04-06T11:29:10;2.97;;;1.48;;
50954;SDS011;36966;48.064;-0.792;2023-04-06T11:31:41;4.40;;;1.95;;
50954;SDS011;36966;48.064;-0.792;2023-04-06T11:34:17;4.05;;;1.85;;
50954;SDS011;36966;48.064;-0.792;2023-04-06T11:36:42;3.67;;;1.83;;
50954;SDS011;36966;48.064;-0.792;2023-04-06T11:41:23;5.20;;;1.80;;
50954;SDS011;36966;48.064;-0.792;2023-04-06T11:43:47;6.68;;;1.98;;
50954;SDS011;36966;48.064;-0.792;2023-04-06T11:46:06;3.22;;;1.15;;
50954;SDS011;36966;48.064;-0.792;2023-04-06T11:48:27;4.68;;;1.20;;
50954;SDS011;36966;48.064;-0.792;2023-04-06T11:50:47;4.55;;;1.20;;
50954;SDS011;36966;48.064;-0.792;2023-04-06T11:53:07;4.53;;;0.90;;
50954;SDS011;36966;48.064;-0.792;2023-04-06T11:55:26;2.10;;;0.95;;
50954;SDS011;36966;48.064;-0.792;2023-04-06T11:57:45;1.95;;;1.15;;
50954;SDS011;36966;48.064;-0.792;2023-04-06T12:00:05;2.58;;;1.02;;
50954;SDS011;36966;48.064;-0.792;2023-04-06T12:02:27;2.50;;;0.88;;
50954;SDS011;36966;48.064;-0.792;2023-04-06T12:04:46;2.28;;;1.08;;
50954;SDS011;36966;48.064;-0.792;2023-04-06T12:07:05;1.95;;;1.38;;
50954;SDS011;36966;48.064;-0.792;2023-04-06T12:09:24;2.85;;;1.25;;
50954;SDS011;36966;48.064;-0.792;2023-04-06T12:11:44;3.47;;;0.93;;
50954;SDS011;36966;48.064;-0.792;2023-04-06T12:14:03;1.50;;;0.85;;
50954;SDS011;36966;48.064;-0.792;2023-04-06T12:16:23;6.07;;;1.67;;
50954;SDS011;36966;48.064;-0.792;2023-04-06T12:18:43;11.88;;;1.13;;
50954;SDS011;36966;48.064;-0.792;2023-04-06T12:21:02;3.70;;;1.05;;
50954;SDS011;36966;48.064;-0.792;2023-04-06T12:23:21;4.30;;;1.25;;
50954;SDS011;36966;48.064;-0.792;2023-04-06T12:25:41;6.38;;;1.55;;
50954;SDS011;36966;48.064;-0.792;2023-04-06T12:28:01;3.58;;;1.27;;
50954;SDS011;36966;48.064;-0.792;2023-04-06T12:30:20;2.85;;;0.93;;
50954;SDS011;36966;48.064;-0.792;2023-04-06T12:32:39;2.90;;;1.10;;
50954;SDS011;36966;48.064;-0.792;2023-04-06T12:34:58;4.55;;;0.98;;
50954;SDS011;36966;48.064;-0.792;2023-04-06T12:37:18;3.65;;;1.15;;
50954;SDS011;36966;48.064;-0.792;2023-04-06T12:39:37;3.28;;;1.05;;
50954;SDS011;36966;48.064;-0.792;2023-04-06T12:41:56;2.85;;;1.15;;
50954;SDS011;36966;48.064;-0.792;2023-04-06T12:44:15;4.28;;;1.65;;
50954;SDS011;36966;48.064;-0.792;2023-04-06T12:46:35;5.47;;;1.25;;
50954;SDS011;36966;48.064;-0.792;2023-04-06T12:48:55;2.03;;;1.13;;
50954;SDS011;36966;48.064;-0.792;2023-04-06T12:51:15;1.88;;;0.90;;
50954;SDS011;36966;48.064;-0.792;2023-04-06T12:53:35;4.65;;;1.10;;
50954;SDS011;36966;48.064;-0.792;2023-04-06T12:55:55;3.80;;;0.93;;
50954;SDS011;36966;48.064;-0.792;2023-04-06T12:58:14;2.30;;;0.90;;
50954;SDS011;36966;48.064;-0.792;2023-04-06T13:00:35;4.43;;;1.42;;
50954;SDS011;36966;48.064;-0.792;2023-04-06T13:02:54;2.33;;;0.95;;
50954;SDS011;36966;48.064;-0.792;2023-04-06T13:05:14;2.85;;;1.08;;
50954;SDS011;36966;48.064;-0.792;2023-04-06T13:07:36;2.33;;;0.93;;
50954;SDS011;36966;48.064;-0.792;2023-04-06T13:09:55;2.08;;;1.10;;
50954;SDS011;36966;48.064;-0.792;2023-04-06T13:12:15;3.35;;;0.85;;
50954;SDS011;36966;48.064;-0.792;2023-04-06T13:14:34;3.35;;;1.13;;
50954;SDS011;36966;48.064;-0.792;2023-04-06T13:16:53;6.78;;;1.27;;
50954;SDS011;36966;48.064;-0.792;2023-04-06T13:19:13;2.95;;;0.98;;
50954;SDS011;36966;48.064;-0.792;2023-04-06T13:21:33;1.65;;;1.08;;
50954;SDS011;36966;48.064;-0.792;2023-04-06T13:23:53;3.15;;;1.00;;
50954;SDS011;36966;48.064;-0.792;2023-04-06T13:26:12;4.60;;;1.20;;
50954;SDS011;36966;48.064;-0.792;2023-04-06T13:28:34;3.78;;;0.98;;
50954;SDS011;36966;48.064;-0.792;2023-04-06T13:30:55;2.10;;;1.30;;
50954;SDS011;36966;48.064;-0.792;2023-04-06T13:33:18;7.15;;;1.52;;
50954;SDS011;36966;48.064;-0.792;2023-04-06T13:35:38;1.75;;;1.08;;
50954;SDS011;36966;48.064;-0.792;2023-04-06T13:37:57;2.83;;;1.10;;
50954;SDS011;36966;48.064;-0.792;2023-04-06T13:40:16;5.75;;;1.30;;
50954;SDS011;36966;48.064;-0.792;2023-04-06T13:42:36;2.08;;;1.00;;
50954;SDS011;36966;48.064;-0.792;2023-04-06T13:44:59;2.00;;;1.30;;
50954;SDS011;36966;48.064;-0.792;2023-04-06T13:47:18;6.68;;;1.55;;
50954;SDS011;36966;48.064;-0.792;2023-04-06T13:49:39;3.78;;;1.20;;
50954;SDS011;36966;48.064;-0.792;2023-04-06T13:51:59;1.52;;;0.90;;